Time;durP1;ratioP1;P1;durP2;ratioP2;P2;SDS_P1;SDS_P2;PMS_P1;PMS_P2;Temp;Humidity;BMP_temperature;BMP_pressure;BME280_temperature;BME280_humidity;BME280_pressure;Samples;Min_cycle;Max_cycle;Signal;HPM_P1;HPM_P2
2021/12/09 00:04:58;;;;;;;13.93;6.65;;;;;;;0.06;91.30;100064.00;10539497;28;20031;-78
2021/12/09 00:10:08;;;;;;;13.77;6.22;;;;;;;0.04;90.57;100065.56;10521083;28;20024;-78
2021/12/09 00:15:13;;;;;;;13.35;6.65;;;;;;;0.21;90.31;100059.09;10522983;28;20078;-78
2021/12/09 00:20:18;;;;;;;15.00;5.97;;;;;;;0.28;90.18;100057.91;10520830;28;20079;-77
2021/12/09 00:25:21;;;;;;;16.40;7.13;;;;;;;0.40;90.21;100050.19;10538907;28;20058;-77
2021/12/09 00:30:22;;;;;;;27.63;8.50;;;;;;;0.38;89.92;100057.81;10538438;28;20028;-77
2021/12/09 00:35:43;;;;;;;13.45;5.60;;;;;;;0.33;89.62;100066.88;10520100;28;20028;-77
2021/12/09 00:40:52;;;;;;;17.85;6.53;;;;;;;0.34;89.31;100058.38;10537269;28;20040;-77
2021/12/09 00:46:03;;;;;;;11.43;5.95;;;;;;;0.45;89.43;100050.56;10538489;28;20028;-77
2021/12/09 00:51:18;;;;;;;32.78;6.53;;;;;;;0.42;88.38;100053.78;10538426;28;20036;-78
2021/12/09 00:56:30;;;;;;;11.75;5.95;;;;;;;0.57;88.20;100069.50;10521564;28;20024;-78
2021/12/09 01:01:33;;;;;;;13.95;5.68;;;;;;;0.56;87.75;100062.56;10537466;28;20032;-77
2021/12/09 01:06:34;;;;;;;16.13;6.22;;;;;;;0.48;87.77;100059.38;10501171;28;20040;-78
2021/12/09 01:11:38;;;;;;;13.45;5.10;;;;;;;0.50;88.14;100068.13;10487922;28;20036;-77
2021/12/09 01:16:49;;;;;;;11.13;5.43;;;;;;;0.60;88.12;100069.72;10538026;28;20028;-77
2021/12/09 01:22:03;;;;;;;11.13;4.50;;;;;;;0.58;87.43;100082.47;10536323;28;20042;-77
2021/12/09 01:27:13;;;;;;;16.75;5.72;;;;;;;0.57;88.00;100082.38;10519325;28;20408;-77
2021/12/09 01:32:30;;;;;;;14.75;5.80;;;;;;;0.42;87.27;100095.88;10538311;28;20024;-77
2021/12/09 01:43:36;;;;;;;13.00;5.32;;;;;;;0.38;88.15;100099.00;10490300;28;20049;-77
2021/12/09 01:48:42;;;;;;;10.00;5.15;;;;;;;0.44;87.96;100096.00;10494445;28;20036;-78
2021/12/09 01:53:49;;;;;;;16.90;5.65;;;;;;;0.39;87.66;100099.88;10495642;28;20369;-78
2021/12/09 01:59:02;;;;;;;13.38;7.22;;;;;;;0.29;87.86;100096.63;10476623;28;20028;-78
2021/12/09 02:04:07;;;;;;;11.18;5.75;;;;;;;0.28;88.21;100092.25;10495435;28;20380;-78
2021/12/09 02:09:13;;;;;;;12.02;6.82;;;;;;;0.20;87.97;100079.59;10476205;28;20431;-77
2021/12/09 02:14:15;;;;;;;16.65;6.30;;;;;;;0.10;88.77;100090.84;10495176;28;20377;-78
2021/12/09 02:19:24;;;;;;;13.30;5.15;;;;;;;-0.02;88.57;100086.53;10499964;28;20040;-78
2021/12/09 02:24:31;;;;;;;12.18;5.80;;;;;;;0.12;88.95;100091.84;10484434;28;20048;-77
2021/12/09 02:29:33;;;;;;;16.42;6.00;;;;;;;0.07;89.09;100090.59;10500596;28;20025;-78
2021/12/09 02:34:35;;;;;;;13.90;6.10;;;;;;;-0.13;88.67;100091.66;10500024;28;20040;-77
2021/12/09 02:39:36;;;;;;;13.85;5.70;;;;;;;-0.05;89.19;100093.16;10501977;28;20024;-78
2021/12/09 02:44:37;;;;;;;17.17;5.97;;;;;;;-0.13;88.94;100097.69;10525462;28;20107;-78
2021/12/09 02:49:40;;;;;;;13.40;5.47;;;;;;;-0.33;88.71;100096.13;10525051;28;20529;-78
2021/12/09 02:54:44;;;;;;;12.95;6.07;;;;;;;-0.41;89.96;100094.63;10524524;28;20061;-78
2021/12/09 02:59:45;;;;;;;17.25;6.25;;;;;;;-0.43;89.63;100098.75;10507558;28;20135;-78
2021/12/09 03:04:50;;;;;;;14.98;5.97;;;;;;;-0.52;89.73;100104.97;10524774;28;20102;-78
2021/12/09 03:09:59;;;;;;;15.60;6.07;;;;;;;-0.46;89.83;100091.69;10507925;28;20070;-78
2021/12/09 03:15:06;;;;;;;14.50;6.10;;;;;;;-0.45;89.99;100099.53;10507980;28;20036;-77
2021/12/09 03:20:09;;;;;;;12.27;5.82;;;;;;;-0.43;89.96;100102.22;10540514;28;20044;-77
2021/12/09 03:25:17;;;;;;;14.30;5.72;;;;;;;-0.45;90.14;100096.03;10541105;28;20028;-77
2021/12/09 03:30:25;;;;;;;17.30;6.43;;;;;;;-0.31;90.14;100102.28;10508038;28;20115;-77
2021/12/09 03:35:34;;;;;;;20.60;8.57;;;;;;;-0.34;90.62;100110.66;10540596;28;20040;-78
2021/12/09 03:40:36;;;;;;;10.68;5.97;;;;;;;-0.16;90.06;100111.22;10504921;28;20078;-77
2021/12/09 03:45:41;;;;;;;13.47;8.03;;;;;;;-0.12;90.33;100117.47;10523259;28;20119;-77
2021/12/09 03:51:06;;;;;;;22.92;10.63;;;;;;;-0.11;90.34;100121.84;10522963;28;20380;-77
2021/12/09 03:56:16;;;;;;;16.42;8.55;;;;;;;0.03;89.81;100124.59;10540312;28;20034;-77
2021/12/09 04:01:20;;;;;;;23.55;7.75;;;;;;;-0.10;89.64;100128.78;10521398;28;20492;-77
2021/12/09 04:06:33;;;;;;;13.77;8.38;;;;;;;-0.17;89.14;100131.66;10538718;28;20119;-78
2021/12/09 04:11:39;;;;;;;12.30;5.45;;;;;;;-0.05;89.49;100139.44;10538972;28;20587;-78
2021/12/09 04:16:57;;;;;;;10.70;5.72;;;;;;;-0.07;88.71;100144.47;10539179;28;20047;-78
2021/12/09 04:21:59;;;;;;;14.32;5.60;;;;;;;-0.11;89.17;100136.41;10504912;28;20119;-77
2021/12/09 04:27:01;;;;;;;15.75;5.20;;;;;;;-0.21;89.30;100135.69;10505224;28;20034;-78
2021/12/09 04:32:04;;;;;;;17.95;5.88;;;;;;;-0.19;89.86;100136.69;10538152;28;20079;-78
2021/12/09 04:37:10;;;;;;;26.77;7.03;;;;;;;-0.16;89.49;100125.72;10539265;28;20027;-77
2021/12/09 04:42:11;;;;;;;12.95;6.38;;;;;;;-0.10;89.18;100130.47;10503818;28;20388;-78
2021/12/09 04:47:16;;;;;;;9.18;5.80;;;;;;;-0.01;89.22;100129.50;10487997;28;20403;-77
2021/12/09 04:52:17;;;;;;;13.38;8.38;;;;;;;0.10;88.44;100134.59;10519686;28;20044;-78
2021/12/09 04:57:19;;;;;;;11.97;6.20;;;;;;;0.10;88.74;100143.22;10538675;28;20032;-78
2021/12/09 05:02:34;;;;;;;12.82;6.03;;;;;;;0.08;88.21;100151.59;10518780;28;20131;-78
2021/12/09 05:07:43;;;;;;;10.73;6.00;;;;;;;0.01;87.77;100157.94;10537532;28;20028;-78
2021/12/09 05:12:50;;;;;;;15.52;5.07;;;;;;;-0.08;87.89;100149.50;10499560;28;20126;-77
2021/12/09 05:17:54;;;;;;;11.27;7.18;;;;;;;-0.15;88.15;100153.25;10503061;28;20071;-77
2021/12/09 05:23:03;;;;;;;15.93;5.75;;;;;;;-0.08;88.73;100152.06;10517355;28;20028;-78
2021/12/09 05:28:08;;;;;;;13.45;7.15;;;;;;;-0.11;88.67;100162.13;10502984;28;20028;-78
2021/12/09 05:33:17;;;;;;;14.30;7.22;;;;;;;-0.08;87.97;100159.78;10519481;28;20464;-78
2021/12/09 05:38:27;;;;;;;13.93;7.82;;;;;;;-0.10;87.88;100166.50;10534473;28;20028;-78
2021/12/09 05:43:34;;;;;;;11.23;5.85;;;;;;;-0.14;88.69;100183.34;10531394;28;20102;-77
2021/12/09 05:48:39;;;;;;;10.50;5.90;;;;;;;-0.10;88.63;100187.94;10497541;28;20036;-78
2021/12/09 05:53:46;;;;;;;12.48;5.78;;;;;;;-0.10;88.67;100179.34;10485586;28;20045;-76
2021/12/09 05:58:54;;;;;;;16.27;7.07;;;;;;;-0.08;87.95;100201.84;10517792;28;20048;-78
2021/12/09 06:03:58;;;;;;;13.65;6.03;;;;;;;-0.02;88.65;100207.47;10525412;28;20040;-78
2021/12/09 06:09:05;;;;;;;13.57;6.05;;;;;;;0.02;88.30;100188.03;10508828;28;20514;-77
2021/12/09 06:14:09;;;;;;;9.27;5.55;;;;;;;-0.11;88.40;100203.28;10525468;28;20054;-79
2021/12/09 06:19:10;;;;;;;13.65;6.68;;;;;;;-0.16;88.24;100210.63;10524005;28;20492;-77
2021/12/09 06:24:10;;;;;;;15.98;7.00;;;;;;;-0.13;88.68;100212.56;10542582;28;20119;-79
2021/12/09 06:29:11;;;;;;;11.35;6.82;;;;;;;-0.24;88.53;100220.31;10541937;28;20528;-77
2021/12/09 06:34:12;;;;;;;13.95;6.82;;;;;;;-0.31;88.34;100212.88;10543512;28;20127;-78
2021/12/09 06:39:13;;;;;;;20.10;8.70;;;;;;;-0.34;88.38;100212.63;10540573;28;20119;-79
2021/12/09 06:44:13;;;;;;;14.57;7.13;;;;;;;-0.34;88.83;100223.81;10542077;28;20040;-78
2021/12/09 06:49:14;;;;;;;14.77;7.57;;;;;;;-0.21;88.35;100215.41;10542100;28;20032;-78
2021/12/09 06:54:14;;;;;;;17.35;7.53;;;;;;;-0.21;88.52;100228.28;10524368;28;20052;-78
2021/12/09 06:59:15;;;;;;;16.60;7.10;;;;;;;-0.18;88.32;100219.88;10522978;28;20119;-78
2021/12/09 07:04:15;;;;;;;20.10;7.65;;;;;;;-0.24;88.49;100224.53;10489313;28;20117;-78
2021/12/09 07:09:16;;;;;;;15.55;7.75;;;;;;;-0.31;88.39;100233.44;10522060;28;20055;-78
2021/12/09 07:14:19;;;;;;;13.80;6.90;;;;;;;-0.37;88.33;100231.25;10522745;28;20068;-78
2021/12/09 07:19:20;;;;;;;13.55;7.70;;;;;;;-0.40;88.50;100228.44;10521933;28;20028;-78
2021/12/09 07:24:20;;;;;;;25.60;10.05;;;;;;;-0.31;88.80;100224.03;10506943;28;20122;-77
2021/12/09 07:29:21;;;;;;;17.25;6.60;;;;;;;-0.28;88.47;100237.94;10522200;28;20048;-78
2021/12/09 07:34:21;;;;;;;14.15;7.43;;;;;;;-0.21;88.71;100233.41;10521302;28;20438;-77
2021/12/09 07:39:22;;;;;;;15.70;7.07;;;;;;;-0.30;88.42;100225.84;10488592;28;20032;-76
2021/12/09 07:44:23;;;;;;;16.92;10.35;;;;;;;-0.31;88.98;100226.63;10504651;28;20036;-77
2021/12/09 07:49:24;;;;;;;20.43;7.37;;;;;;;-0.18;88.70;100225.94;10521958;28;20395;-76
2021/12/09 07:54:25;;;;;;;15.32;8.25;;;;;;;-0.02;88.30;100238.34;10520892;28;20043;-79
2021/12/09 07:59:25;;;;;;;30.10;8.95;;;;;;;-0.05;88.58;100242.38;10521247;28;20399;-78
2021/12/09 08:04:26;;;;;;;16.90;8.98;;;;;;;0.33;88.52;100252.22;10521759;28;20074;-78
2021/12/09 08:09:27;;;;;;;17.60;9.27;;;;;;;0.68;88.10;100237.69;10520004;28;20039;-77
2021/12/09 08:14:28;;;;;;;17.73;9.57;;;;;;;0.79;86.94;100252.31;10520868;28;20097;-76
2021/12/09 08:19:28;;;;;;;14.00;8.02;;;;;;;1.00;86.66;100245.34;10519324;28;20115;-78
2021/12/09 08:24:29;;;;;;;19.15;9.10;;;;;;;1.25;85.80;100230.78;10519502;28;20551;-78
2021/12/09 08:29:29;;;;;;;17.05;8.80;;;;;;;1.37;85.04;100236.88;10485903;28;20030;-79
2021/12/09 08:34:30;;;;;;;36.65;9.57;;;;;;;1.54;84.56;100242.38;10518875;28;20064;-79
2021/12/09 08:39:30;;;;;;;19.25;7.55;;;;;;;1.64;84.05;100247.44;10513267;28;20071;-81
2021/12/09 08:44:31;;;;;;;19.40;7.57;;;;;;;1.75;83.47;100236.22;10505651;28;20067;-77
2021/12/09 08:49:31;;;;;;;14.82;8.07;;;;;;;1.86;82.95;100246.41;10502586;28;20115;-77
2021/12/09 08:54:32;;;;;;;18.55;8.10;;;;;;;2.01;82.88;100247.53;10518257;28;20065;-78
2021/12/09 08:59:32;;;;;;;18.25;7.65;;;;;;;2.07;82.46;100243.59;10520232;28;20024;-79
2021/12/09 09:04:33;;;;;;;25.40;10.40;;;;;;;2.16;83.10;100245.16;10519770;28;20078;-78
2021/12/09 09:09:34;;;;;;;12.85;6.93;;;;;;;2.23;82.46;100246.47;10519613;28;20395;-79
2021/12/09 09:14:35;;;;;;;18.87;8.90;;;;;;;2.29;82.33;100264.09;10520203;28;20024;-78
2021/12/09 09:19:36;;;;;;;14.10;6.88;;;;;;;2.41;81.65;100264.97;10502423;28;20543;-79
2021/12/09 09:24:36;;;;;;;11.98;5.88;;;;;;;2.56;81.35;100278.06;10521310;28;20107;-78
2021/12/09 09:29:39;;;;;;;13.13;5.55;;;;;;;2.61;80.18;100281.84;10528601;28;20042;-79
2021/12/09 09:34:39;;;;;;;15.82;6.63;;;;;;;2.71;80.90;100283.41;10527156;28;20028;-78
2021/12/09 09:39:43;;;;;;;12.23;6.50;;;;;;;2.83;80.65;100278.19;10527304;28;20025;-78
2021/12/09 09:44:54;;;;;;;12.60;6.50;;;;;;;3.03;79.80;100271.81;10529138;28;20036;-78
2021/12/09 09:49:55;;;;;;;10.18;6.10;;;;;;;2.98;79.16;100278.34;10526493;28;20024;-77
2021/12/09 09:54:56;;;;;;;15.13;6.55;;;;;;;2.92;79.54;100276.22;10509793;28;20028;-78
2021/12/09 09:59:57;;;;;;;12.27;6.00;;;;;;;2.80;78.91;100272.81;10544554;28;20062;-77
2021/12/09 10:05:01;;;;;;;17.65;6.38;;;;;;;2.79;79.75;100274.50;10510069;28;20108;-77
2021/12/09 10:10:03;;;;;;;15.85;6.97;;;;;;;2.71;79.41;100270.50;10526150;28;20023;-78
2021/12/09 10:15:04;;;;;;;12.05;5.25;;;;;;;2.68;79.12;100275.44;10525423;28;20036;-77
2021/12/09 10:20:06;;;;;;;9.73;5.85;;;;;;;2.67;79.63;100270.16;10518683;28;20028;-78
2021/12/09 10:25:18;;;;;;;18.42;5.88;;;;;;;2.64;79.61;100270.84;10502922;28;20035;-77
2021/12/09 10:30:22;;;;;;;10.35;5.35;;;;;;;2.63;79.62;100261.31;10488239;28;20024;-78
2021/12/09 10:35:22;;;;;;;7.47;5.07;;;;;;;2.69;79.76;100250.50;10449452;28;20075;-78
2021/12/09 10:40:27;;;;;;;13.15;5.45;;;;;;;2.59;79.63;100262.75;10476962;28;20404;-78
2021/12/09 10:45:33;;;;;;;7.57;5.13;;;;;;;2.59;80.30;100254.13;10500738;28;20043;-82
2021/12/09 10:51:06;;;;;;;13.55;6.07;;;;;;;2.56;80.66;100252.22;10488341;28;20066;-77
2021/12/09 10:56:10;;;;;;;10.45;7.45;;;;;;;2.54;80.94;100253.78;10527145;28;20032;-77
2021/12/09 11:01:20;;;;;;;11.93;5.80;;;;;;;2.58;81.40;100250.63;10490668;28;20058;-81
2021/12/09 11:06:38;;;;;;;14.60;6.38;;;;;;;2.67;80.44;100242.66;10490582;28;20111;-79
2021/12/09 11:11:43;;;;;;;11.30;5.13;;;;;;;2.82;80.85;100241.91;10506630;28;20062;-78
2021/12/09 11:16:44;;;;;;;9.60;5.55;;;;;;;2.93;80.21;100240.94;10524785;28;20107;-78
2021/12/09 11:21:53;;;;;;;12.27;5.22;;;;;;;2.94;79.40;100238.47;10521820;28;20106;-79
2021/12/09 11:27:00;;;;;;;10.30;5.90;;;;;;;2.90;79.48;100230.41;10510731;28;20039;-79
2021/12/09 11:32:14;;;;;;;11.57;6.68;;;;;;;2.87;79.15;100220.72;10540565;28;20533;-79
2021/12/09 11:37:37;;;;;;;7.72;4.18;;;;;;;2.77;79.83;100224.41;10541135;28;20055;-79
2021/12/09 11:42:45;;;;;;;19.77;5.90;;;;;;;2.77;80.18;100226.06;10508617;28;20048;-79
2021/12/09 11:47:47;;;;;;;7.57;6.28;;;;;;;2.82;80.79;100222.09;10522172;28;20039;-79
2021/12/09 11:52:48;;;;;;;10.48;5.32;;;;;;;2.82;80.58;100224.69;10504501;28;20126;-79
2021/12/09 11:57:55;;;;;;;7.45;4.00;;;;;;;2.79;80.79;100216.72;10520701;28;20403;-79
2021/12/09 12:14:43;;;;;;;10.40;4.55;;;;;;;2.86;80.49;100212.91;10538227;28;20035;-79
2021/12/09 12:20:10;;;;;;;10.45;4.82;;;;;;;2.73;81.14;100221.47;10507115;28;20024;-80
2021/12/09 12:26:10;;;;;;;6.20;3.78;;;;;;;2.61;81.46;100218.97;10506386;28;20384;-79
2021/12/09 12:36:51;;;;;;;7.17;3.30;;;;;;;2.68;81.33;100202.19;10502860;28;20127;-80
2021/12/09 12:42:03;;;;;;;8.30;5.65;;;;;;;2.61;81.74;100200.88;10507451;28;20043;-80
2021/12/09 12:47:16;;;;;;;7.38;4.07;;;;;;;2.66;81.46;100188.25;10488266;28;20036;-79
2021/12/09 12:52:27;;;;;;;9.63;4.90;;;;;;;2.66;81.68;100188.25;10521803;28;20032;-80
2021/12/09 12:57:30;;;;;;;12.30;5.53;;;;;;;2.68;82.32;100189.25;10498903;28;20048;-80
2021/12/09 13:13:36;;;;;;;6.40;4.20;;;;;;;2.90;81.38;100182.16;10492864;28;20032;-79
2021/12/09 13:18:47;;;;;;;8.05;5.43;;;;;;;2.82;81.69;100187.63;10494657;28;20033;-79
2021/12/09 13:24:25;;;;;;;16.25;5.43;;;;;;;2.90;81.24;100189.94;10493899;28;20452;-79
2021/12/09 13:29:37;;;;;;;8.32;4.72;;;;;;;2.92;81.33;100188.34;10491820;28;20036;-79
2021/12/09 13:34:49;;;;;;;7.35;4.57;;;;;;;2.94;81.77;100191.94;10477952;28;20512;-78
2021/12/09 13:50:51;;;;;;;7.60;5.25;;;;;;;2.96;82.09;100206.66;10520915;28;20040;-79
2021/12/09 13:55:52;;;;;;;9.18;5.70;;;;;;;3.03;81.59;100203.69;10535223;28;20040;-79
2021/12/09 14:00:52;;;;;;;8.05;5.47;;;;;;;2.96;81.96;100201.47;10516686;28;20058;-78
2021/12/09 14:05:58;;;;;;;12.57;5.15;;;;;;;3.03;81.96;100188.16;10484756;28;20035;-78
2021/12/09 14:11:03;;;;;;;25.38;5.65;;;;;;;2.95;81.80;100198.00;10502493;28;20122;-79
2021/12/09 14:16:15;;;;;;;8.10;5.80;;;;;;;2.83;82.32;100198.06;10491538;28;20035;-79
2021/12/09 14:21:19;;;;;;;12.65;6.40;;;;;;;2.79;83.03;100196.06;10525336;28;20039;-77
2021/12/09 14:26:20;;;;;;;10.20;6.72;;;;;;;2.89;82.79;100195.88;10509243;28;20062;-76
2021/12/09 14:31:21;;;;;;;12.43;5.70;;;;;;;2.85;83.11;100199.06;10536722;28;20038;-78
2021/12/09 14:36:21;;;;;;;9.68;5.18;;;;;;;2.88;82.92;100203.56;10463572;28;20039;-78
2021/12/09 14:41:28;;;;;;;10.25;6.93;;;;;;;2.85;83.14;100204.22;10482287;28;20488;-78
2021/12/09 14:46:36;;;;;;;10.98;5.88;;;;;;;2.87;83.38;100212.09;10483548;28;20048;-77
2021/12/09 14:51:41;;;;;;;22.02;7.65;;;;;;;2.79;83.27;100204.72;10486139;28;20035;-78
2021/12/09 14:56:52;;;;;;;12.18;6.22;;;;;;;2.79;83.71;100212.47;10523066;28;20480;-76
2021/12/09 15:02:22;;;;;;;12.60;6.30;;;;;;;2.81;83.03;100204.81;10524532;28;20034;-77
2021/12/09 15:07:33;;;;;;;12.48;7.65;;;;;;;2.76;83.78;100217.44;10523697;28;20068;-77
2021/12/09 15:12:40;;;;;;;10.93;6.05;;;;;;;2.78;83.87;100205.50;10505711;28;20028;-76
2021/12/09 15:17:53;;;;;;;12.30;6.68;;;;;;;2.73;84.07;100200.81;10529195;28;20050;-77
2021/12/09 15:22:58;;;;;;;11.05;6.95;;;;;;;2.68;85.13;100197.94;10510709;28;20020;-77
2021/12/09 15:28:01;;;;;;;12.00;7.97;;;;;;;2.66;85.74;100201.19;10505961;28;20399;-78
2021/12/09 15:33:02;;;;;;;17.80;10.50;;;;;;;2.56;86.37;100197.97;10504294;28;20031;-78
2021/12/09 15:38:03;;;;;;;13.75;9.90;;;;;;;2.63;86.73;100197.59;10521013;28;20028;-78
2021/12/09 15:43:14;;;;;;;16.88;10.18;;;;;;;2.60;86.98;100184.47;10522299;28;20048;-78
2021/12/09 15:48:16;;;;;;;14.85;9.00;;;;;;;2.64;87.00;100191.63;10462640;28;20032;-78
2021/12/09 15:53:16;;;;;;;;;;;;;;;2.74;86.37;100190.59;10501411;28;20127;-77
2021/12/09 15:58:21;;;;;;;19.08;9.75;;;;;;;2.78;86.17;100191.69;10520886;28;20002;-77
2021/12/09 16:03:22;;;;;;;17.08;9.20;;;;;;;2.77;86.47;100175.28;10540061;28;20066;-78
2021/12/09 16:08:22;;;;;;;18.00;11.15;;;;;;;2.79;85.93;100186.63;10520249;28;20097;-78
2021/12/09 16:13:24;;;;;;;18.33;10.50;;;;;;;2.78;86.39;100183.94;10521004;28;20055;-76
2021/12/09 16:18:28;;;;;;;19.23;10.43;;;;;;;2.81;86.35;100180.66;10520842;28;20057;-77
2021/12/09 16:23:28;;;;;;;19.40;12.32;;;;;;;2.85;86.10;100193.88;10537227;28;20328;-78
2021/12/09 16:28:29;;;;;;;17.98;10.05;;;;;;;2.79;86.62;100184.03;10537985;28;20553;-78
2021/12/09 16:33:30;;;;;;;22.17;12.20;;;;;;;2.80;86.57;100184.94;10530931;28;20043;-78
2021/12/09 16:38:31;;;;;;;19.88;12.48;;;;;;;2.78;86.65;100181.34;10488097;28;20059;-79
2021/12/09 16:43:32;;;;;;;15.73;11.57;;;;;;;2.72;87.25;100183.50;10516317;28;20032;-78
2021/12/09 16:48:33;;;;;;;21.23;11.23;;;;;;;2.70;87.24;100185.09;10484419;28;20063;-78
2021/12/09 16:53:44;;;;;;;24.90;12.52;;;;;;;2.76;86.89;100178.66;10527884;28;20075;-78
2021/12/09 16:58:48;;;;;;;19.38;11.52;;;;;;;2.83;86.97;100184.25;10503022;28;20050;-77
2021/12/09 17:03:49;;;;;;;37.22;15.32;;;;;;;2.83;87.08;100176.50;10496318;28;20024;-77
2021/12/09 17:08:51;;;;;;;18.88;12.45;;;;;;;2.92;86.47;100172.84;10504364;28;20496;-77
2021/12/09 17:13:52;;;;;;;;;;;;;;;2.92;86.09;100175.41;10517206;28;20421;-76
2021/12/09 17:18:52;;;;;;;20.42;12.82;;;;;;;2.89;86.39;100176.91;10518517;28;20036;-76
2021/12/09 17:23:53;;;;;;;22.17;11.68;;;;;;;2.89;86.72;100182.97;10517566;28;20119;-77
2021/12/09 17:28:54;;;;;;;15.20;9.20;;;;;;;2.93;86.57;100169.44;10534148;28;20024;-77
2021/12/09 17:33:55;;;;;;;18.73;12.00;;;;;;;2.98;86.27;100174.94;10488920;28;20043;-76
2021/12/09 17:38:55;;;;;;;20.35;11.32;;;;;;;3.01;86.32;100166.47;10518267;28;20035;-77
2021/12/09 17:43:57;;;;;;;22.15;10.90;;;;;;;2.98;86.19;100166.28;10507427;28;20070;-78
2021/12/09 17:48:58;;;;;;;17.05;11.25;;;;;;;3.00;86.13;100159.53;10534643;28;20127;-78
2021/12/09 17:54:00;;;;;;;19.05;11.43;;;;;;;2.98;85.93;100155.94;10484378;28;20587;-78
2021/12/09 17:59:01;;;;;;;;;;;;;;;3.05;85.65;100156.47;10525020;28;20048;-78
2021/12/09 18:04:02;;;;;;;18.42;9.70;;;;;;;3.04;85.75;100157.25;10523494;28;19912;-78
2021/12/09 18:09:02;;;;;;;16.95;10.68;;;;;;;3.03;85.80;100159.72;10499745;28;20476;-78
2021/12/09 18:14:03;;;;;;;28.73;11.50;;;;;;;3.01;85.53;100161.31;10521640;28;20079;-77
2021/12/09 18:19:03;;;;;;;28.98;11.45;;;;;;;3.05;85.21;100153.88;10530800;28;20485;-77
2021/12/09 18:24:05;;;;;;;17.85;10.05;;;;;;;3.12;84.96;100152.56;10522909;28;20066;-78
2021/12/09 18:29:05;;;;;;;18.93;9.93;;;;;;;3.07;85.58;100153.97;10513921;28;20035;-77
2021/12/09 18:34:06;;;;;;;16.45;10.05;;;;;;;3.04;85.10;100149.50;10541487;28;20064;-77
2021/12/09 18:39:06;;;;;;;20.50;9.75;;;;;;;3.14;84.62;100155.28;10511078;28;20107;-78
2021/12/09 18:44:07;;;;;;;28.73;11.25;;;;;;;3.17;85.09;100152.91;10476520;28;20072;-78
2021/12/09 18:49:08;;;;;;;18.23;9.80;;;;;;;3.16;85.14;100156.28;10470221;28;20041;-78
2021/12/09 18:54:10;;;;;;;17.05;10.20;;;;;;;3.16;85.28;100162.31;10494991;28;20040;-80
2021/12/09 18:59:11;;;;;;;17.08;9.75;;;;;;;3.19;84.91;100156.47;10478897;28;20033;-77
2021/12/09 19:04:11;;;;;;;16.85;10.15;;;;;;;3.18;84.49;100149.50;10492313;28;20083;-78
2021/12/09 19:09:13;;;;;;;19.83;10.30;;;;;;;3.14;84.82;100153.56;10484455;28;20082;-77
2021/12/09 19:14:17;;;;;;;14.63;10.40;;;;;;;3.09;85.51;100154.97;10472064;28;20036;-78
2021/12/09 19:19:18;;;;;;;26.10;10.80;;;;;;;3.16;85.18;100153.69;10471009;28;20115;-78
2021/12/09 19:24:18;;;;;;;21.13;10.65;;;;;;;3.18;84.71;100152.97;10476399;28;20077;-78
2021/12/09 19:29:19;;;;;;;20.25;10.43;;;;;;;3.21;84.60;100145.44;10461263;28;20473;-76
2021/12/09 19:34:20;;;;;;;23.42;11.73;;;;;;;3.22;84.63;100142.03;10498368;28;20036;-75
2021/12/09 19:39:23;;;;;;;26.20;11.73;;;;;;;3.27;84.10;100132.00;10495345;28;20087;-79
2021/12/09 19:44:24;;;;;;;15.85;9.27;;;;;;;3.35;84.01;100117.88;10488026;28;20041;-79
2021/12/09 19:49:25;;;;;;;18.13;10.32;;;;;;;3.37;84.13;100113.72;10494158;28;20103;-78
2021/12/09 19:54:25;;;;;;;18.92;9.27;;;;;;;3.49;83.03;100103.22;10443544;28;20499;-79
2021/12/09 19:59:28;;;;;;;16.13;8.02;;;;;;;3.52;83.17;100110.31;10455438;28;20162;-78
2021/12/09 20:04:28;;;;;;;24.67;9.10;;;;;;;3.45;83.48;100102.97;10477505;28;20043;-78
2021/12/09 20:09:29;;;;;;;21.08;9.32;;;;;;;3.43;83.08;100089.03;10495788;28;20388;-78
2021/12/09 20:14:29;;;;;;;23.77;11.45;;;;;;;3.37;82.97;100087.84;10479582;28;20024;-79
2021/12/09 20:19:30;;;;;;;13.05;9.18;;;;;;;3.34;83.27;100078.97;10496003;28;20388;-78
2021/12/09 20:24:30;;;;;;;18.50;11.05;;;;;;;3.32;83.79;100076.31;10496734;28;20063;-78
2021/12/09 20:29:31;;;;;;;17.73;10.02;;;;;;;3.31;83.07;100069.34;10492896;28;20028;-78
2021/12/09 20:34:32;;;;;;;17.00;9.48;;;;;;;3.24;83.08;100061.97;10488789;28;20032;-78
2021/12/09 20:39:36;;;;;;;19.48;10.60;;;;;;;3.23;82.74;100055.91;10463288;28;20396;-78
2021/12/09 20:44:37;;;;;;;17.23;9.00;;;;;;;3.20;82.89;100042.78;10517510;28;20032;-77
2021/12/09 20:49:42;;;;;;;31.52;11.18;;;;;;;3.14;83.14;100037.22;10534957;28;20028;-77
2021/12/09 20:54:44;;;;;;;21.33;10.05;;;;;;;3.10;83.37;100037.81;10534255;28;20063;-77
2021/12/09 20:59:45;;;;;;;20.27;8.48;;;;;;;3.00;83.35;100026.00;10497033;28;20033;-77
2021/12/09 21:04:47;;;;;;;20.50;11.07;;;;;;;2.97;83.31;100017.13;10527892;28;20027;-78
2021/12/09 21:09:47;;;;;;;25.08;11.80;;;;;;;2.70;83.94;100007.72;10517346;28;20031;-78
2021/12/09 21:14:48;;;;;;;24.67;10.65;;;;;;;2.43;84.64;99999.03;10515965;28;20055;-78
2021/12/09 21:19:51;;;;;;;23.45;11.43;;;;;;;2.07;84.98;99985.44;10516502;28;20118;-77
2021/12/09 21:24:53;;;;;;;29.67;11.85;;;;;;;1.97;86.18;99986.53;10534432;28;20494;-78
2021/12/09 21:29:57;;;;;;;23.13;12.02;;;;;;;1.78;86.62;99976.63;10516541;28;20037;-78
2021/12/09 21:35:13;;;;;;;32.03;13.10;;;;;;;1.65;86.83;99968.03;10535242;28;20094;-77
2021/12/09 21:40:17;;;;;;;18.52;10.93;;;;;;;1.52;86.25;99957.66;9644256;28;24866084;-78
2021/12/09 21:45:27;;;;;;;16.30;10.30;;;;;;;1.34;86.75;99947.84;10501808;28;20036;-76
2021/12/09 21:50:27;;;;;;;20.27;12.27;;;;;;;1.01;87.39;99935.31;10525958;28;20028;-78
2021/12/09 21:55:28;;;;;;;21.40;12.73;;;;;;;0.94;88.55;99922.78;10517856;28;20479;-78
2021/12/09 22:00:33;;;;;;;;;;;;;;;0.81;88.20;99925.25;10519047;28;20044;-78
2021/12/09 22:05:34;;;;;;;24.75;13.50;;;;;;;0.74;88.44;99913.59;10518351;28;19941;-79
2021/12/09 22:10:35;;;;;;;30.67;16.20;;;;;;;0.65;88.69;99903.56;10518550;28;20388;-78
2021/12/09 22:15:40;;;;;;;36.90;15.38;;;;;;;0.75;89.65;99897.38;10535883;28;20036;-79
2021/12/09 22:20:41;;;;;;;29.20;15.75;;;;;;;0.62;89.25;99881.81;10484164;28;20530;-79
2021/12/09 22:25:42;;;;;;;29.85;15.85;;;;;;;0.56;89.42;99880.59;10508561;28;20029;-77
2021/12/09 22:30:43;;;;;;;31.10;13.57;;;;;;;0.63;89.37;99870.72;10496387;28;20048;-77
2021/12/09 22:35:43;;;;;;;27.60;15.30;;;;;;;0.70;90.12;99863.56;10523551;28;20036;-77
2021/12/09 22:40:44;;;;;;;27.60;14.57;;;;;;;0.88;89.84;99848.50;10507813;28;20045;-76
2021/12/09 22:45:53;;;;;;;38.15;18.65;;;;;;;1.05;89.55;99850.47;10491714;28;20113;-77
2021/12/09 22:51:03;;;;;;;28.42;14.32;;;;;;;1.21;89.74;99835.28;10483634;28;20396;-77
2021/12/09 22:56:06;;;;;;;21.75;14.32;;;;;;;1.28;89.14;99819.44;10522143;28;20108;-77
2021/12/09 23:01:13;;;;;;;24.35;15.18;;;;;;;1.26;89.16;99817.53;10508769;28;20527;-77
2021/12/09 23:06:14;;;;;;;37.58;15.57;;;;;;;1.22;88.70;99810.38;10509063;28;20452;-77
2021/12/09 23:11:22;;;;;;;24.45;14.27;;;;;;;1.09;88.76;99799.22;10507390;28;20126;-77
2021/12/09 23:16:24;;;;;;;26.52;14.57;;;;;;;0.86;88.38;99795.09;10491577;28;20032;-77
2021/12/09 23:21:24;;;;;;;35.22;16.33;;;;;;;0.79;88.57;99777.44;10507746;28;20063;-77
2021/12/09 23:26:25;;;;;;;26.85;13.07;;;;;;;0.74;89.02;99771.94;10522504;28;20111;-77
2021/12/09 23:31:26;;;;;;;19.17;13.57;;;;;;;0.81;89.37;99755.25;10492516;28;20465;-77
2021/12/09 23:36:27;;;;;;;18.17;11.10;;;;;;;0.90;88.63;99745.56;10501928;28;20127;-77
2021/12/09 23:41:27;;;;;;;19.55;12.73;;;;;;;0.80;88.49;99730.28;10481358;28;20044;-77
2021/12/09 23:46:28;;;;;;;21.02;10.68;;;;;;;0.92;88.34;99710.50;10536358;28;20038;-77
2021/12/09 23:51:28;;;;;;;17.15;9.35;;;;;;;0.86;88.06;99707.50;10540180;28;20040;-76
2021/12/09 23:56:29;;;;;;;20.27;9.85;;;;;;;0.89;88.00;99687.09;10522830;28;20067;-77
